.
WxDataArchive / Data Records for 2012-01-06
2012-01-05 January 2012 2012-01-07

Data Records for Friday, 06 January 2012

Time	Temp	Chill	HIndex	Humid	Dewpt	 Wind 	HiWind	WindDir	Rain 	Barom 
-----	----	-----	------	-----	-----	------	------	-------	-----	----- 
00:00	42.3	42.3	42.3	67	32.1	2	6	248	0.00	29.780 
00:05	42.3	42.3	42.3	67	32.1	2	6	248	0.00	29.780 
00:10	42.3	42.3	42.3	67	32.1	3	10	248	0.00	29.780 
00:15	42.3	42.3	42.3	67	32.1	2	6	248	0.00	29.772 
00:20	42.3	42.3	42.3	67	32.1	3	6	248	0.00	29.772 
00:25	42.3	42.3	42.3	67	32.1	2	5	270	0.00	29.772 
00:30	42.3	42.3	42.3	67	32.1	2	6	248	0.00	29.772 
00:35	42.3	42.3	42.3	67	32.1	2	6	248	0.00	29.772 
00:40	42.2	42.2	42.2	67	32.0	2	6	248	0.00	29.772 
00:45	42.2	42.2	42.2	67	32.0	2	5	248	0.00	29.778 
00:50	42.2	42.2	42.2	67	32.0	2	6	225	0.00	29.778 
00:55	42.2	42.2	42.2	67	32.0	2	5	248	0.00	29.778 
01:00	42.2	42.2	42.2	67	32.0	2	5	248	0.00	29.782 
01:05	42.2	42.2	42.2	67	32.0	2	5	248	0.00	29.782 
01:10	42.1	42.1	42.1	67	31.9	2	5	248	0.00	29.782 
01:15	41.9	41.9	41.9	67	31.8	2	5	248	0.00	29.770 
01:20	41.9	41.9	41.9	67	31.8	2	9	248	0.00	29.770 
01:25	41.9	41.9	41.9	68	32.1	2	4	248	0.00	29.770 
01:30	41.9	41.9	41.9	68	32.1	2	6	248	0.00	29.766 
01:35	41.8	41.8	41.8	68	32.0	1	4	248	0.00	29.766 
01:40	41.8	41.8	41.8	68	32.0	1	3	248	0.00	29.766 
01:45	41.8	41.8	41.8	68	32.0	1	5	248	0.00	29.766 
01:50	41.6	41.6	41.6	68	31.8	1	3	225	0.00	29.766 
01:55	41.6	41.6	41.6	68	31.8	1	4	248	0.00	29.766 
02:00	41.5	41.5	41.5	68	31.7	1	4	248	0.00	29.766 
02:05	41.3	41.3	41.3	68	31.5	1	3	225	0.00	29.766 
02:10	41.3	41.3	41.3	68	31.5	1	4	225	0.00	29.766 
02:15	41.3	41.3	41.3	68	31.5	1	4	225	0.00	29.766 
02:20	41.5	41.5	41.5	68	31.7	1	5	248	0.00	29.766 
02:25	41.5	41.5	41.5	68	31.7	1	4	248	0.00	29.766 
02:30	41.5	41.5	41.5	68	31.7	1	3	270	0.00	29.767 
02:35	41.3	41.3	41.3	68	31.5	1	4	248	0.00	29.767 
02:40	41.3	41.3	41.3	68	31.5	1	3	248	0.00	29.767 
02:45	41.3	41.3	41.3	68	31.5	1	4	248	0.00	29.766 
02:50	41.3	41.3	41.3	68	31.5	1	5	248	0.00	29.766 
02:55	41.3	41.3	41.3	68	31.5	1	4	248	0.00	29.766 
03:00	41.3	41.3	41.3	68	31.5	1	5	248	0.00	29.767 
03:05	41.3	41.3	41.3	68	31.5	1	3	270	0.00	29.767 
03:10	41.3	41.3	41.3	68	31.5	1	3	248	0.00	29.767 
03:15	41.2	41.2	41.2	68	31.5	1	4	248	0.00	29.766 
03:20	41.2	41.2	41.2	68	31.5	1	4	248	0.00	29.766 
03:25	41.2	41.2	41.2	68	31.5	1	3	248	0.00	29.766 
03:30	41.1	41.1	41.1	69	31.7	1	3	292	0.00	29.767 
03:35	40.9	40.9	40.9	69	31.5	1	4	270	0.00	29.767 
03:40	40.8	40.8	40.8	69	31.4	1	3	270	0.00	29.767 
03:45	40.6	40.6	40.6	69	31.2	1	4	270	0.00	29.766 
03:50	40.3	40.3	40.3	70	31.3	0	3	270	0.00	29.766 
03:55	40.2	40.2	40.2	70	31.2	1	4	270	0.00	29.766 
04:00	40.1	40.1	40.1	71	31.5	1	5	270	0.00	29.768 
04:05	39.9	39.9	39.9	71	31.3	1	3	248	0.00	29.768 
04:10	39.8	39.8	39.8	72	31.5	0	2	248	0.00	29.768 
04:15	39.6	39.6	39.6	72	31.3	1	3	248	0.00	29.766 
04:20	39.5	39.5	39.5	73	31.6	1	3	248	0.00	29.766 
04:25	39.5	39.5	39.5	73	31.6	0	2	248	0.00	29.766 
04:30	39.3	39.3	39.3	73	31.4	1	3	248	0.00	29.766 
04:35	39.3	39.3	39.3	73	31.4	1	3	270	0.00	29.766 
04:40	39.5	39.5	39.5	73	31.6	1	4	270	0.00	29.766 
04:45	39.5	39.5	39.5	73	31.6	1	3	270	0.00	29.757 
04:50	39.6	39.6	39.6	73	31.7	1	4	248	0.00	29.757 
04:55	39.8	39.8	39.8	73	31.9	1	5	248	0.00	29.757 
05:00	39.9	39.9	39.9	72	31.6	1	4	292	0.00	29.756 
05:05	39.9	39.9	39.9	72	31.6	1	4	270	0.00	29.756 
05:10	40.1	40.1	40.1	72	31.8	1	5	248	0.00	29.756 
05:15	40.2	40.2	40.2	72	31.9	2	7	248	0.00	29.756 
05:20	40.3	40.3	40.3	71	31.7	2	7	248	0.00	29.756 
05:25	40.5	40.5	40.5	71	31.8	2	5	270	0.00	29.756 
05:30	40.6	40.6	40.6	70	31.6	2	6	248	0.00	29.754 
05:35	40.6	40.6	40.6	70	31.6	2	5	248	0.00	29.754 
05:40	40.8	40.8	40.8	70	31.8	1	4	248	0.00	29.754 
05:45	40.8	40.8	40.8	70	31.8	2	5	248	0.00	29.755 
05:50	40.9	40.9	40.9	69	31.5	2	5	248	0.00	29.755 
05:55	41.1	41.1	41.1	69	31.7	2	6	248	0.00	29.755 
06:00	41.2	41.2	41.2	69	31.8	2	6	248	0.00	29.759 
06:05	41.2	41.2	41.2	69	31.8	2	4	248	0.00	29.759 
06:10	41.3	41.3	41.3	68	31.5	2	6	248	0.00	29.759 
06:15	41.5	41.5	41.5	68	31.7	2	6	248	0.00	29.765 
06:20	41.5	41.5	41.5	68	31.7	1	5	248	0.00	29.765 
06:25	41.5	41.5	41.5	68	31.7	2	5	248	0.00	29.765 
06:30	41.5	41.5	41.5	67	31.4	2	7	248	0.00	29.766 
06:35	41.8	41.8	41.8	67	31.7	3	7	248	0.00	29.766 
06:40	41.8	41.8	41.8	67	31.7	2	5	248	0.00	29.766 
06:45	41.6	41.6	41.6	67	31.5	2	4	248	0.00	29.767 
06:50	41.5	41.5	41.5	67	31.4	1	4	248	0.00	29.767 
06:55	41.3	41.3	41.3	68	31.5	2	6	248	0.00	29.767 
07:00	41.3	41.3	41.3	68	31.5	2	5	248	0.00	29.767 
07:05	41.2	41.2	41.2	68	31.5	2	5	248	0.00	29.767 
07:10	41.2	41.2	41.2	68	31.5	1	5	248	0.00	29.767 
07:15	41.2	41.2	41.2	68	31.5	2	5	248	0.00	29.767 
07:20	41.1	41.1	41.1	68	31.4	2	4	248	0.00	29.767 
07:25	41.2	41.2	41.2	68	31.5	2	6	248	0.00	29.767 
07:30	41.2	41.2	41.2	68	31.5	2	5	248	0.00	29.768 
07:35	41.2	41.2	41.2	68	31.5	2	6	248	0.00	29.768 
07:40	41.2	41.2	41.2	68	31.5	2	6	248	0.00	29.768 
07:45	41.2	41.2	41.2	68	31.5	2	7	248	0.00	29.766 
07:50	41.1	41.1	41.1	68	31.4	1	4	248	0.00	29.766 
07:55	40.9	40.9	40.9	68	31.2	1	4	248	0.00	29.766 
08:00	40.6	40.6	40.6	69	31.2	1	4	248	0.00	29.764 
08:05	40.5	40.5	40.5	69	31.1	2	6	248	0.00	29.764 
08:10	40.3	40.3	40.3	70	31.3	2	5	248	0.00	29.764 
08:15	40.2	40.2	40.2	70	31.2	2	4	248	0.00	29.766 
08:20	40.2	40.2	40.2	71	31.6	1	5	248	0.00	29.766 
08:25	40.1	40.1	40.1	71	31.5	2	5	248	0.00	29.766 
08:30	40.1	40.1	40.1	71	31.5	2	6	248	0.00	29.769 
08:35	40.2	40.2	40.2	71	31.6	2	5	248	0.00	29.769 
08:40	40.3	40.3	40.3	71	31.7	2	5	248	0.00	29.769 
08:45	40.5	40.5	40.5	71	31.8	1	6	248	0.00	29.770 
08:50	40.6	40.6	40.6	70	31.6	2	7	248	0.00	29.770 
08:55	41.1	41.1	41.1	69	31.7	3	9	248	0.00	29.770 
09:00	41.2	41.2	41.2	69	31.8	2	6	248	0.00	29.772 
09:05	41.3	41.3	41.3	69	31.9	2	5	270	0.00	29.772 
09:10	41.6	41.6	41.6	68	31.8	2	6	248	0.00	29.772 
09:15	41.8	41.8	41.8	68	32.0	2	5	248	0.00	29.771 
09:20	42.1	42.1	42.1	67	31.9	2	5	248	0.00	29.771 
09:25	42.2	42.2	42.2	67	32.0	2	5	248	0.00	29.771 
09:30	42.3	42.3	42.3	66	31.8	2	5	248	0.00	29.770 
09:35	42.6	42.6	42.6	66	32.0	2	6	248	0.00	29.770 
09:40	42.9	42.9	42.9	65	32.0	1	4	248	0.00	29.770 
09:45	43.2	43.2	43.2	64	31.9	3	6	248	0.00	29.773 
09:50	43.3	43.3	43.3	65	32.3	2	6	248	0.00	29.773 
09:55	43.5	43.5	43.5	64	32.1	2	6	248	0.00	29.773 
10:00	43.8	43.8	43.8	64	32.4	2	8	248	0.00	29.773 
10:05	43.9	43.9	43.9	64	32.5	3	6	248	0.00	29.773 
10:10	44.1	44.1	44.1	63	32.3	2	7	248	0.00	29.773 
10:15	44.2	44.2	44.2	63	32.4	3	7	248	0.00	29.768 
10:20	44.3	44.3	44.3	63	32.5	1	3	248	0.00	29.768 
10:25	44.5	44.5	44.5	63	32.7	2	5	248	0.00	29.768 
10:30	44.6	44.6	44.6	63	32.8	2	6	248	0.00	29.773 
10:35	44.9	44.9	44.9	62	32.7	2	7	248	0.00	29.773 
10:40	45.1	45.1	45.1	62	32.9	3	7	248	0.00	29.773 
10:45	45.2	45.2	45.2	62	33.0	2	5	248	0.00	29.771 
10:50	45.5	45.5	45.5	61	32.8	2	7	248	0.00	29.771 
10:55	45.8	45.8	45.8	60	32.7	3	6	248	0.00	29.771 
11:00	46.1	46.1	46.1	59	32.6	2	7	248	0.00	29.776 
11:05	46.5	46.5	46.5	59	33.0	3	6	248	0.00	29.776 
11:10	46.8	46.8	46.8	58	32.8	3	7	248	0.00	29.776 
11:15	47.3	47.3	47.3	57	32.8	2	10	248	0.00	29.777 
11:20	47.4	45.9	47.4	56	32.5	4	9	248	0.00	29.777 
11:25	47.7	47.7	47.7	57	33.2	3	9	248	0.00	29.777 
11:30	47.9	47.9	47.9	56	33.0	3	9	248	0.00	29.766 
11:35	48.2	48.2	48.2	56	33.2	2	4	248	0.00	29.766 
11:40	48.5	48.5	48.5	55	33.1	3	7	248	0.00	29.766 
11:45	48.6	48.6	48.6	55	33.2	2	7	248	0.00	29.763 
11:50	48.8	48.8	48.8	54	32.9	3	5	248	0.00	29.763 
11:55	49.1	49.1	49.1	55	33.6	1	5	248	0.00	29.763 
12:00	49.5	49.5	49.5	54	33.6	2	7	248	0.00	29.760 
12:05	49.6	49.6	49.6	54	33.6	2	4	248	0.00	29.760 
12:10	49.9	49.9	49.9	54	33.9	2	5	248	0.00	29.760 
12:15	50.2	50.2	50.2	53	33.7	3	6	248	0.00	29.752 
12:20	50.2	50.2	50.2	53	33.7	3	6	248	0.00	29.752 
12:25	50.4	50.4	50.4	53	33.9	3	6	248	0.00	29.752 
12:30	50.5	50.5	50.5	52	33.5	2	9	248	0.00	29.744 
12:35	50.5	50.5	50.5	52	33.5	2	6	248	0.00	29.744 
12:40	50.8	50.8	50.8	53	34.3	2	6	248	0.00	29.744 
12:45	51.0	51.0	51.0	52	34.0	1	6	248	0.00	29.730 
12:50	51.1	51.1	51.1	52	34.1	2	5	248	0.00	29.730 
12:55	51.1	51.1	51.1	52	34.1	2	7	248	0.00	29.730 
13:00	51.4	51.4	51.4	53	34.8	2	4	248	0.00	29.721 
13:05	51.4	51.4	51.4	52	34.4	3	7	248	0.00	29.721 
13:10	51.4	51.4	51.4	52	34.4	2	6	248	0.00	29.721 
13:15	51.6	51.6	51.6	53	35.0	1	5	270	0.00	29.712 
13:20	51.7	51.7	51.7	52	34.6	2	7	248	0.00	29.712 
13:25	52.0	52.0	52.0	52	34.9	2	7	248	0.00	29.712 
13:30	52.2	52.2	52.2	51	34.6	2	5	248	0.00	29.712 
13:35	52.5	52.5	52.5	51	34.9	2	5	248	0.00	29.712 
13:40	52.6	52.6	52.6	51	35.0	3	13	248	0.00	29.712 
13:45	52.6	52.6	52.6	50	34.5	3	9	248	0.00	29.708 
13:50	52.5	52.5	52.5	51	34.9	3	11	248	0.00	29.708 
13:55	52.6	52.6	52.6	50	34.5	3	7	248	0.00	29.708 
14:00	52.9	52.9	52.9	51	35.3	1	3	248	0.00	29.702 
14:05	53.2	53.2	53.2	50	35.0	1	4	248	0.00	29.702 
14:10	53.5	53.5	53.5	49	34.8	2	5	248	0.00	29.702 
14:15	53.6	53.6	53.6	49	34.9	1	5	248	0.00	29.705 
14:20	53.6	53.6	53.6	49	34.9	2	5	248	0.00	29.705 
14:25	53.9	53.9	53.9	50	35.7	1	3	248	0.00	29.705 
14:30	54.1	54.1	54.1	51	36.4	1	4	248	0.00	29.706 
14:35	53.9	53.9	53.9	50	35.7	2	7	248	0.00	29.706 
14:40	53.8	53.8	53.8	50	35.6	1	4	248	0.00	29.706 
14:45	53.8	53.8	53.8	49	35.1	2	6	248	0.00	29.708 
14:50	53.6	53.6	53.6	50	35.4	2	6	248	0.00	29.708 
14:55	53.6	53.6	53.6	50	35.4	2	6	248	0.00	29.708 
15:00	53.6	53.6	53.6	50	35.4	3	9	248	0.00	29.706 
15:05	53.6	53.6	53.6	51	35.9	1	4	248	0.00	29.706 
15:10	53.6	53.6	53.6	51	35.9	2	5	248	0.00	29.706 
15:15	53.6	53.6	53.6	50	35.4	2	5	248	0.00	29.708 
15:20	53.6	53.6	53.6	50	35.4	3	7	248	0.00	29.708 
15:25	53.8	53.8	53.8	50	35.6	1	6	248	0.00	29.708 
15:30	53.8	53.8	53.8	51	36.1	1	7	248	0.00	29.707 
15:35	53.9	53.9	53.9	50	35.7	3	10	248	0.00	29.707 
15:40	54.2	54.2	54.2	50	36.0	2	5	248	0.00	29.707 
15:45	54.4	54.4	54.4	49	35.6	2	4	248	0.00	29.711 
15:50	54.4	54.4	54.4	49	35.6	1	6	248	0.00	29.711 
15:55	54.4	54.4	54.4	49	35.6	2	7	225	0.00	29.711 
16:00	54.4	54.4	54.4	50	36.2	2	6	225	0.00	29.712 
16:05	54.2	54.2	54.2	50	36.0	1	6	248	0.00	29.712 
16:10	53.9	53.9	53.9	50	35.7	2	5	248	0.00	29.712 
16:15	53.6	53.6	53.6	51	35.9	2	6	270	0.00	29.714 
16:20	53.5	53.5	53.5	52	36.3	1	4	315	0.00	29.714 
16:25	53.3	53.3	53.3	53	36.6	2	4	248	0.00	29.714 
16:30	53.2	53.2	53.2	53	36.5	1	7	225	0.00	29.727 
16:35	53.2	53.2	53.2	53	36.5	3	9	248	0.00	29.727 
16:40	53.1	53.1	53.1	53	36.4	2	6	248	0.00	29.727 
16:45	52.9	52.9	52.9	54	36.7	1	6	248	0.00	29.720 
16:50	52.6	52.6	52.6	54	36.4	1	5	248	0.00	29.720 
16:55	52.5	52.5	52.5	54	36.3	2	6	248	0.00	29.720 
17:00	52.3	52.3	52.3	54	36.2	2	5	225	0.00	29.728 
17:05	52.2	52.2	52.2	55	36.5	2	4	248	0.00	29.728 
17:10	52.0	52.0	52.0	55	36.3	2	4	248	0.00	29.728 
17:15	51.7	51.7	51.7	55	36.1	1	6	248	0.00	29.726 
17:20	51.4	51.4	51.4	56	36.2	2	4	248	0.00	29.726 
17:25	51.1	51.1	51.1	57	36.4	1	4	248	0.00	29.726 
17:30	50.8	50.8	50.8	57	36.1	2	5	248	0.00	29.715 
17:35	50.7	50.7	50.7	58	36.5	2	4	248	0.00	29.715 
17:40	50.5	50.5	50.5	57	35.8	1	6	248	0.00	29.715 
17:45	50.4	50.4	50.4	58	36.2	1	3	248	0.00	29.729 
17:50	50.2	50.2	50.2	58	36.0	1	4	248	0.00	29.729 
17:55	50.1	50.1	50.1	58	35.9	2	6	248	0.00	29.729 
18:00	50.1	50.1	50.1	58	35.9	1	6	248	0.00	29.733 
18:05	49.9	49.9	49.9	58	35.7	1	5	248	0.00	29.733 
18:10	49.6	49.6	49.6	59	35.9	1	3	248	0.00	29.733 
18:15	49.5	49.5	49.5	59	35.8	1	3	248	0.00	29.740 
18:20	49.2	49.2	49.2	60	35.9	0	2	248	0.00	29.740 
18:25	49.1	49.1	49.1	60	35.8	1	4	248	0.00	29.740 
18:30	48.9	48.9	48.9	60	35.6	1	3	248	0.00	29.743 
18:35	48.9	48.9	48.9	60	35.6	1	3	248	0.00	29.743 
18:40	48.8	48.8	48.8	61	36.0	1	4	248	0.00	29.743 
18:45	48.8	48.8	48.8	61	36.0	1	3	248	0.00	29.745 
18:50	48.6	48.6	48.6	61	35.8	1	3	248	0.00	29.745 
18:55	48.6	48.6	48.6	61	35.8	1	3	248	0.00	29.745 
19:00	48.5	48.5	48.5	61	35.7	1	3	248	0.00	29.748 
19:05	48.3	48.3	48.3	62	35.9	1	3	248	0.00	29.748 
19:10	48.2	48.2	48.2	62	35.8	1	3	248	0.00	29.748 
19:15	48.0	48.0	48.0	62	35.6	1	4	248	0.00	29.750 
19:20	47.7	47.7	47.7	63	35.7	0	2	248	0.00	29.750 
19:25	47.6	47.6	47.6	63	35.6	1	3	248	0.00	29.750 
19:30	47.4	47.4	47.4	63	35.4	1	2	248	0.00	29.751 
19:35	47.4	47.4	47.4	64	35.8	0	2	248	0.00	29.751 
19:40	47.3	47.3	47.3	64	35.7	0	3	248	0.00	29.751 
19:45	47.1	47.1	47.1	64	35.6	0	3	248	0.00	29.750 
19:50	47.0	47.0	47.0	64	35.5	0	2	248	0.00	29.750 
19:55	46.8	46.8	46.8	64	35.3	0	2	248	0.00	29.750 
20:00	46.5	46.5	46.5	65	35.4	1	3	248	0.00	29.749 
20:05	46.5	46.5	46.5	65	35.4	0	3	248	0.00	29.749 
20:10	46.2	46.2	46.2	65	35.1	0	1	248	0.00	29.749 
20:15	46.1	46.1	46.1	65	35.0	0	3	248	0.00	29.750 
20:20	46.1	46.1	46.1	65	35.0	0	2	248	0.00	29.750 
20:25	46.1	46.1	46.1	65	35.0	0	2	248	0.00	29.750 
20:30	46.0	46.0	46.0	65	34.9	0	2	248	0.00	29.748 
20:35	45.8	45.8	45.8	66	35.1	0	1	248	0.00	29.748 
20:40	45.7	45.7	45.7	66	35.0	0	1	248	0.00	29.748 
20:45	45.4	45.4	45.4	66	34.7	0	1	248	0.00	29.747 
20:50	45.1	45.1	45.1	67	34.8	0	0	---	0.00	29.747 
20:55	44.9	44.9	44.9	67	34.6	0	1	248	0.00	29.747 
21:00	45.1	45.1	45.1	68	35.2	0	2	248	0.00	29.746 
21:05	45.2	45.2	45.2	67	34.9	0	2	248	0.00	29.746 
21:10	45.4	45.4	45.4	67	35.1	0	3	248	0.00	29.746 
21:15	45.4	45.4	45.4	67	35.1	0	2	248	0.00	29.740 
21:20	45.4	45.4	45.4	67	35.1	0	3	248	0.00	29.740 
21:25	45.4	45.4	45.4	67	35.1	0	2	248	0.00	29.740 
21:30	45.2	45.2	45.2	67	34.9	0	1	248	0.00	29.738 
21:35	45.1	45.1	45.1	67	34.8	0	1	248	0.00	29.738 
21:40	44.8	44.8	44.8	68	34.9	0	2	248	0.00	29.738 
21:45	44.6	44.6	44.6	68	34.7	0	1	248	0.00	29.735 
21:50	44.6	44.6	44.6	69	35.1	0	1	248	0.00	29.735 
21:55	44.5	44.5	44.5	69	35.0	0	1	248	0.00	29.735 
22:00	44.2	44.2	44.2	69	34.7	0	1	248	0.00	29.732 
22:05	44.1	44.1	44.1	70	35.0	0	1	248	0.00	29.732 
22:10	44.1	44.1	44.1	70	35.0	0	1	248	0.00	29.732 
22:15	44.1	44.1	44.1	70	35.0	0	2	248	0.00	29.727 
22:20	44.1	44.1	44.1	70	35.0	0	2	248	0.00	29.727 
22:25	43.9	43.9	43.9	71	35.1	0	2	248	0.00	29.727 
22:30	43.8	43.8	43.8	71	35.0	0	2	248	0.00	29.724 
22:35	43.6	43.6	43.6	71	34.8	0	3	248	0.00	29.724 
22:40	43.6	43.6	43.6	72	35.2	0	2	248	0.00	29.724 
22:45	43.5	43.5	43.5	72	35.1	0	2	248	0.00	29.720 
22:50	43.5	43.5	43.5	72	35.1	0	2	248	0.00	29.720 
22:55	43.3	43.3	43.3	72	34.9	0	1	248	0.00	29.720 
23:00	43.2	43.2	43.2	73	35.1	0	3	248	0.00	29.719 
23:05	43.2	43.2	43.2	73	35.1	0	2	248	0.00	29.719 
23:10	43.1	43.1	43.1	73	35.0	0	2	248	0.00	29.719 
23:15	42.9	42.9	42.9	73	34.9	0	2	248	0.00	29.715 
23:20	42.8	42.8	42.8	73	34.8	0	2	248	0.00	29.715 
23:25	42.6	42.6	42.6	73	34.6	0	1	248	0.00	29.715 
23:30	42.5	42.5	42.5	74	34.8	0	1	248	0.00	29.714 
23:35	42.3	42.3	42.3	74	34.6	0	1	248	0.00	29.714 
23:40	42.2	42.2	42.2	74	34.5	0	1	248	0.00	29.714 
23:45	42.1	42.1	42.1	74	34.4	0	0	---	0.00	29.714 
23:50	41.8	41.8	41.8	75	34.5	0	1	248	0.00	29.714 
23:55	41.6	41.6	41.6	75	34.3	0	1	248	0.00	29.714 

CoCoRaHS
IN-AL-39
A2 Web Hosting
Creative Commons License
GoDaddy
search engine by freefind advanced

loaded 2018-11-17 06:23:18 • last modified 2010-11-18 10:43:29
Privacy PolicyDisclaimer
• wx.awcolley.com is powered by PmWiki v.2002016 •
• all content (unless otherwise noted) © 2018 A W Colley